sensor_id;sensor_type;location;lat;lon;timestamp;P1;durP1;ratioP1;P2;durP2;ratioP2
54143;SDS011;40050;47.324;18.792;2023-04-12T00:00:52;2.55;;;1.78;;
54143;SDS011;40050;47.324;18.792;2023-04-12T00:02:53;4.62;;;1.88;;
54143;SDS011;40050;47.324;18.792;2023-04-12T00:04:54;3.11;;;1.98;;
54143;SDS011;40050;47.324;18.792;2023-04-12T00:06:55;3.02;;;1.78;;
54143;SDS011;40050;47.324;18.792;2023-04-12T00:08:56;4.53;;;1.98;;
54143;SDS011;40050;47.324;18.792;2023-04-12T00:10:57;2.45;;;1.68;;
54143;SDS011;40050;47.324;18.792;2023-04-12T00:12:58;4.43;;;1.88;;
54143;SDS011;40050;47.324;18.792;2023-04-12T00:14:59;3.39;;;1.78;;
54143;SDS011;40050;47.324;18.792;2023-04-12T00:17:00;4.71;;;1.68;;
54143;SDS011;40050;47.324;18.792;2023-04-12T00:19:00;3.11;;;1.58;;
54143;SDS011;40050;47.324;18.792;2023-04-12T00:21:01;4.34;;;1.78;;
54143;SDS011;40050;47.324;18.792;2023-04-12T00:23:02;3.87;;;1.58;;
54143;SDS011;40050;47.324;18.792;2023-04-12T00:25:03;3.59;;;1.58;;
54143;SDS011;40050;47.324;18.792;2023-04-12T00:27:04;3.59;;;1.48;;
54143;SDS011;40050;47.324;18.792;2023-04-12T00:29:05;2.74;;;1.49;;
54143;SDS011;40050;47.324;18.792;2023-04-12T00:31:06;3.50;;;1.58;;
54143;SDS011;40050;47.324;18.792;2023-04-12T00:33:07;3.21;;;1.39;;
54143;SDS011;40050;47.324;18.792;2023-04-12T00:35:08;3.78;;;1.39;;
54143;SDS011;40050;47.324;18.792;2023-04-12T00:37:09;1.98;;;1.39;;
54143;SDS011;40050;47.324;18.792;2023-04-12T00:39:09;4.06;;;1.68;;
54143;SDS011;40050;47.324;18.792;2023-04-12T00:41:13;2.46;;;1.49;;
54143;SDS011;40050;47.324;18.792;2023-04-12T00:43:14;3.50;;;1.68;;
54143;SDS011;40050;47.324;18.792;2023-04-12T00:45:15;2.55;;;1.58;;
54143;SDS011;40050;47.324;18.792;2023-04-12T00:47:16;3.03;;;1.58;;
54143;SDS011;40050;47.324;18.792;2023-04-12T00:49:17;3.97;;;1.88;;
54143;SDS011;40050;47.324;18.792;2023-04-12T00:51:18;4.44;;;1.78;;
54143;SDS011;40050;47.324;18.792;2023-04-12T00:53:20;4.16;;;1.48;;
54143;SDS011;40050;47.324;18.792;2023-04-12T00:55:22;2.55;;;1.68;;
54143;SDS011;40050;47.324;18.792;2023-04-12T00:57:23;3.69;;;1.88;;
54143;SDS011;40050;47.324;18.792;2023-04-12T00:59:24;3.40;;;2.08;;
54143;SDS011;40050;47.324;18.792;2023-04-12T01:01:25;3.03;;;1.49;;
54143;SDS011;40050;47.324;18.792;2023-04-12T01:03:26;3.41;;;1.58;;
54143;SDS011;40050;47.324;18.792;2023-04-12T01:05:27;3.40;;;1.58;;
54143;SDS011;40050;47.324;18.792;2023-04-12T01:07:57;3.21;;;1.78;;
54143;SDS011;40050;47.324;18.792;2023-04-12T01:10:23;3.59;;;1.58;;
54143;SDS011;40050;47.324;18.792;2023-04-12T01:14:29;2.84;;;1.58;;
54143;SDS011;40050;47.324;18.792;2023-04-12T01:16:49;4.35;;;1.49;;
54143;SDS011;40050;47.324;18.792;2023-04-12T01:18:44;3.31;;;1.88;;
54143;SDS011;40050;47.324;18.792;2023-04-12T01:20:52;3.78;;;1.78;;
54143;SDS011;40050;47.324;18.792;2023-04-12T01:25:46;2.84;;;1.98;;
54143;SDS011;40050;47.324;18.792;2023-04-12T01:27:41;4.44;;;1.68;;
54143;SDS011;40050;47.324;18.792;2023-04-12T01:29:26;2.55;;;1.68;;
54143;SDS011;40050;47.324;18.792;2023-04-12T01:31:27;3.40;;;1.78;;
54143;SDS011;40050;47.324;18.792;2023-04-12T01:33:31;3.21;;;2.18;;
54143;SDS011;40050;47.324;18.792;2023-04-12T01:35:34;3.30;;;1.68;;
54143;SDS011;40050;47.324;18.792;2023-04-12T01:37:36;3.78;;;1.78;;
54143;SDS011;40050;47.324;18.792;2023-04-12T01:39:37;3.21;;;1.78;;
54143;SDS011;40050;47.324;18.792;2023-04-12T01:41:39;4.53;;;2.08;;
54143;SDS011;40050;47.324;18.792;2023-04-12T01:43:42;4.43;;;1.78;;
54143;SDS011;40050;47.324;18.792;2023-04-12T01:45:42;4.06;;;1.98;;
54143;SDS011;40050;47.324;18.792;2023-04-12T01:47:43;4.15;;;2.18;;
54143;SDS011;40050;47.324;18.792;2023-04-12T01:49:51;3.49;;;1.98;;
54143;SDS011;40050;47.324;18.792;2023-04-12T01:52:02;3.68;;;2.18;;
54143;SDS011;40050;47.324;18.792;2023-04-12T01:54:25;4.24;;;2.18;;
54143;SDS011;40050;47.324;18.792;2023-04-12T01:56:29;4.89;;;2.08;;
54143;SDS011;40050;47.324;18.792;2023-04-12T01:58:32;3.58;;;2.18;;
54143;SDS011;40050;47.324;18.792;2023-04-12T02:00:34;4.14;;;2.08;;
54143;SDS011;40050;47.324;18.792;2023-04-12T02:02:35;5.65;;;1.98;;
54143;SDS011;40050;47.324;18.792;2023-04-12T02:04:36;6.50;;;2.67;;
54143;SDS011;40050;47.324;18.792;2023-04-12T02:06:37;4.43;;;2.37;;
54143;SDS011;40050;47.324;18.792;2023-04-12T02:08:41;3.87;;;2.57;;
54143;SDS011;40050;47.324;18.792;2023-04-12T02:10:45;5.28;;;2.67;;
54143;SDS011;40050;47.324;18.792;2023-04-12T02:12:46;4.43;;;2.67;;
54143;SDS011;40050;47.324;18.792;2023-04-12T02:14:47;4.52;;;2.77;;
54143;SDS011;40050;47.324;18.792;2023-04-12T02:16:48;4.62;;;2.87;;
54143;SDS011;40050;47.324;18.792;2023-04-12T02:18:49;5.18;;;2.87;;
54143;SDS011;40050;47.324;18.792;2023-04-12T02:20:50;3.67;;;2.67;;
54143;SDS011;40050;47.324;18.792;2023-04-12T02:22:51;5.93;;;3.07;;
54143;SDS011;40050;47.324;18.792;2023-04-12T02:24:52;5.65;;;2.77;;
54143;SDS011;40050;47.324;18.792;2023-04-12T02:26:53;5.47;;;3.07;;
54143;SDS011;40050;47.324;18.792;2023-04-12T02:28:54;5.09;;;3.07;;
54143;SDS011;40050;47.324;18.792;2023-04-12T02:30:58;6.79;;;2.87;;
54143;SDS011;40050;47.324;18.792;2023-04-12T02:32:56;5.65;;;3.16;;
54143;SDS011;40050;47.324;18.792;2023-04-12T02:34:57;5.27;;;2.87;;
54143;SDS011;40050;47.324;18.792;2023-04-12T02:36:58;5.37;;;2.77;;
54143;SDS011;40050;47.324;18.792;2023-04-12T02:38:59;6.59;;;3.26;;
54143;SDS011;40050;47.324;18.792;2023-04-12T02:41:00;4.70;;;2.67;;
54143;SDS011;40050;47.324;18.792;2023-04-12T02:43:01;6.30;;;3.16;;
54143;SDS011;40050;47.324;18.792;2023-04-12T02:45:02;4.52;;;2.97;;
54143;SDS011;40050;47.324;18.792;2023-04-12T02:47:02;6.68;;;2.97;;
54143;SDS011;40050;47.324;18.792;2023-04-12T02:49:03;8.93;;;3.06;;
54143;SDS011;40050;47.324;18.792;2023-04-12T02:51:04;5.55;;;2.87;;
54143;SDS011;40050;47.324;18.792;2023-04-12T02:53:05;6.11;;;3.07;;
54143;SDS011;40050;47.324;18.792;2023-04-12T02:55:06;6.30;;;3.56;;
54143;SDS011;40050;47.324;18.792;2023-04-12T02:57:07;4.33;;;3.07;;
54143;SDS011;40050;47.324;18.792;2023-04-12T02:59:08;7.15;;;3.16;;
54143;SDS011;40050;47.324;18.792;2023-04-12T03:01:09;7.06;;;3.56;;
54143;SDS011;40050;47.324;18.792;2023-04-12T03:03:09;6.50;;;3.26;;
54143;SDS011;40050;47.324;18.792;2023-04-12T03:05:10;4.99;;;3.17;;
54143;SDS011;40050;47.324;18.792;2023-04-12T03:07:12;6.69;;;3.36;;
54143;SDS011;40050;47.324;18.792;2023-04-12T03:09:12;6.22;;;3.46;;
54143;SDS011;40050;47.324;18.792;2023-04-12T03:11:13;5.56;;;3.46;;
54143;SDS011;40050;47.324;18.792;2023-04-12T03:13:14;5.75;;;3.27;;
54143;SDS011;40050;47.324;18.792;2023-04-12T03:15:15;7.36;;;3.86;;
54143;SDS011;40050;47.324;18.792;2023-04-12T03:17:16;5.96;;;3.66;;
54143;SDS011;40050;47.324;18.792;2023-04-12T03:19:17;6.90;;;3.96;;
54143;SDS011;40050;47.324;18.792;2023-04-12T03:21:18;6.52;;;3.96;;
54143;SDS011;40050;47.324;18.792;2023-04-12T03:23:18;5.94;;;3.96;;
54143;SDS011;40050;47.324;18.792;2023-04-12T03:25:19;6.59;;;3.96;;
54143;SDS011;40050;47.324;18.792;2023-04-12T03:27:20;6.21;;;3.86;;
54143;SDS011;40050;47.324;18.792;2023-04-12T03:29:21;6.02;;;3.56;;
54143;SDS011;40050;47.324;18.792;2023-04-12T03:31:22;5.36;;;3.66;;
54143;SDS011;40050;47.324;18.792;2023-04-12T03:33:23;6.49;;;3.96;;
54143;SDS011;40050;47.324;18.792;2023-04-12T03:35:24;5.64;;;3.66;;
54143;SDS011;40050;47.324;18.792;2023-04-12T03:37:25;5.73;;;3.56;;
54143;SDS011;40050;47.324;18.792;2023-04-12T03:39:26;6.29;;;3.46;;
54143;SDS011;40050;47.324;18.792;2023-04-12T03:41:27;9.48;;;3.56;;
54143;SDS011;40050;47.324;18.792;2023-04-12T03:43:28;6.94;;;3.66;;
54143;SDS011;40050;47.324;18.792;2023-04-12T03:45:28;5.44;;;3.16;;
54143;SDS011;40050;47.324;18.792;2023-04-12T03:47:29;5.44;;;3.36;;
54143;SDS011;40050;47.324;18.792;2023-04-12T03:49:30;6.28;;;3.06;;
54143;SDS011;40050;47.324;18.792;2023-04-12T03:51:31;6.28;;;3.36;;
54143;SDS011;40050;47.324;18.792;2023-04-12T03:53:32;5.44;;;3.46;;
54143;SDS011;40050;47.324;18.792;2023-04-12T03:55:33;5.63;;;3.36;;
54143;SDS011;40050;47.324;18.792;2023-04-12T03:57:34;6.19;;;3.26;;
54143;SDS011;40050;47.324;18.792;2023-04-12T03:59:35;5.92;;;3.46;;
54143;SDS011;40050;47.324;18.792;2023-04-12T04:01:37;6.58;;;3.46;;
54143;SDS011;40050;47.324;18.792;2023-04-12T04:03:38;5.35;;;3.16;;
54143;SDS011;40050;47.324;18.792;2023-04-12T04:05:39;6.85;;;3.56;;
54143;SDS011;40050;47.324;18.792;2023-04-12T04:07:41;5.07;;;3.16;;
54143;SDS011;40050;47.324;18.792;2023-04-12T04:09:42;6.48;;;3.56;;
54143;SDS011;40050;47.324;18.792;2023-04-12T04:11:42;6.11;;;3.46;;
54143;SDS011;40050;47.324;18.792;2023-04-12T04:13:43;7.23;;;3.56;;
54143;SDS011;40050;47.324;18.792;2023-04-12T04:15:45;6.58;;;3.76;;
54143;SDS011;40050;47.324;18.792;2023-04-12T04:17:46;7.14;;;3.56;;
54143;SDS011;40050;47.324;18.792;2023-04-12T04:19:47;6.29;;;3.56;;
54143;SDS011;40050;47.324;18.792;2023-04-12T04:21:48;6.67;;;3.86;;
54143;SDS011;40050;47.324;18.792;2023-04-12T04:23:49;8.45;;;3.85;;
54143;SDS011;40050;47.324;18.792;2023-04-12T04:25:49;7.89;;;4.15;;
54143;SDS011;40050;47.324;18.792;2023-04-12T04:27:50;5.91;;;3.46;;
54143;SDS011;40050;47.324;18.792;2023-04-12T04:29:51;7.69;;;3.95;;
54143;SDS011;40050;47.324;18.792;2023-04-12T04:31:53;6.19;;;3.66;;
54143;SDS011;40050;47.324;18.792;2023-04-12T04:33:53;7.60;;;3.85;;
54143;SDS011;40050;47.324;18.792;2023-04-12T04:35:54;7.96;;;3.85;;
54143;SDS011;40050;47.324;18.792;2023-04-12T04:37:58;7.30;;;3.85;;
54143;SDS011;40050;47.324;18.792;2023-04-12T04:40:00;7.38;;;4.05;;
54143;SDS011;40050;47.324;18.792;2023-04-12T04:42:00;5.61;;;3.75;;
54143;SDS011;40050;47.324;18.792;2023-04-12T04:44:01;5.88;;;4.14;;
54143;SDS011;40050;47.324;18.792;2023-04-12T04:46:02;8.60;;;4.34;;
54143;SDS011;40050;47.324;18.792;2023-04-12T04:48:03;6.35;;;4.44;;
54143;SDS011;40050;47.324;18.792;2023-04-12T04:50:04;9.52;;;4.54;;
54143;SDS011;40050;47.324;18.792;2023-04-12T04:52:05;9.70;;;4.64;;
54143;SDS011;40050;47.324;18.792;2023-04-12T04:54:06;7.18;;;4.34;;
54143;SDS011;40050;47.324;18.792;2023-04-12T04:56:07;8.02;;;4.74;;
54143;SDS011;40050;47.324;18.792;2023-04-12T04:58:08;6.62;;;4.54;;
54143;SDS011;40050;47.324;18.792;2023-04-12T05:00:09;8.85;;;4.93;;
54143;SDS011;40050;47.324;18.792;2023-04-12T05:02:10;7.08;;;4.24;;
54143;SDS011;40050;47.324;18.792;2023-04-12T05:04:10;7.35;;;4.63;;
54143;SDS011;40050;47.324;18.792;2023-04-12T05:06:11;6.79;;;4.14;;
54143;SDS011;40050;47.324;18.792;2023-04-12T05:08:13;5.68;;;4.14;;
54143;SDS011;40050;47.324;18.792;2023-04-12T05:10:14;6.14;;;3.94;;
54143;SDS011;40050;47.324;18.792;2023-04-12T05:12:14;8.21;;;4.24;;
54143;SDS011;40050;47.324;18.792;2023-04-12T05:14:15;8.31;;;4.34;;
54143;SDS011;40050;47.324;18.792;2023-04-12T05:16:16;8.50;;;4.64;;
54143;SDS011;40050;47.324;18.792;2023-04-12T05:18:17;7.01;;;4.05;;
54143;SDS011;40050;47.324;18.792;2023-04-12T05:20:18;7.08;;;4.04;;
54143;SDS011;40050;47.324;18.792;2023-04-12T05:22:19;7.01;;;4.84;;
54143;SDS011;40050;47.324;18.792;2023-04-12T05:24:20;8.61;;;4.15;;
54143;SDS011;40050;47.324;18.792;2023-04-12T05:26:21;7.96;;;4.54;;
54143;SDS011;40050;47.324;18.792;2023-04-12T05:28:22;6.75;;;4.45;;
54143;SDS011;40050;47.324;18.792;2023-04-12T05:30:23;6.55;;;4.15;;
54143;SDS011;40050;47.324;18.792;2023-04-12T05:32:25;7.68;;;4.15;;
54143;SDS011;40050;47.324;18.792;2023-04-12T05:34:26;7.60;;;4.35;;
54143;SDS011;40050;47.324;18.792;2023-04-12T05:36:27;5.72;;;4.25;;
54143;SDS011;40050;47.324;18.792;2023-04-12T05:38:28;6.94;;;4.05;;
54143;SDS011;40050;47.324;18.792;2023-04-12T05:40:29;7.14;;;4.45;;
54143;SDS011;40050;47.324;18.792;2023-04-12T05:42:30;8.44;;;4.35;;
54143;SDS011;40050;47.324;18.792;2023-04-12T05:44:33;8.06;;;4.25;;
54143;SDS011;40050;47.324;18.792;2023-04-12T05:46:32;6.76;;;3.85;;
54143;SDS011;40050;47.324;18.792;2023-04-12T05:48:33;8.46;;;3.86;;
54143;SDS011;40050;47.324;18.792;2023-04-12T05:50:34;5.75;;;3.86;;
54143;SDS011;40050;47.324;18.792;2023-04-12T05:52:35;8.21;;;4.55;;
54143;SDS011;40050;47.324;18.792;2023-04-12T05:54:36;8.21;;;4.06;;
54143;SDS011;40050;47.324;18.792;2023-04-12T05:56:37;7.28;;;3.96;;
54143;SDS011;40050;47.324;18.792;2023-04-12T05:58:38;6.33;;;3.86;;
54143;SDS011;40050;47.324;18.792;2023-04-12T06:00:39;7.21;;;3.96;;
54143;SDS011;40050;47.324;18.792;2023-04-12T06:02:40;6.07;;;3.96;;
54143;SDS011;40050;47.324;18.792;2023-04-12T06:04:41;7.81;;;3.87;;
54143;SDS011;40050;47.324;18.792;2023-04-12T06:06:42;6.76;;;3.77;;
54143;SDS011;40050;47.324;18.792;2023-04-12T06:08:43;6.87;;;3.97;;
54143;SDS011;40050;47.324;18.792;2023-04-12T06:10:44;6.20;;;3.47;;
54143;SDS011;40050;47.324;18.792;2023-04-12T06:12:46;6.41;;;3.67;;
54143;SDS011;40050;47.324;18.792;2023-04-12T06:14:46;9.00;;;3.77;;
54143;SDS011;40050;47.324;18.792;2023-04-12T06:16:47;5.83;;;3.57;;
54143;SDS011;40050;47.324;18.792;2023-04-12T06:18:48;6.89;;;3.48;;
54143;SDS011;40050;47.324;18.792;2023-04-12T06:20:49;7.65;;;3.58;;
54143;SDS011;40050;47.324;18.792;2023-04-12T06:22:50;5.09;;;3.48;;
54143;SDS011;40050;47.324;18.792;2023-04-12T06:24:51;6.55;;;3.28;;
54143;SDS011;40050;47.324;18.792;2023-04-12T06:26:52;6.26;;;3.08;;
54143;SDS011;40050;47.324;18.792;2023-04-12T06:28:53;5.01;;;3.28;;
54143;SDS011;40050;47.324;18.792;2023-04-12T06:30:54;4.72;;;3.08;;
54143;SDS011;40050;47.324;18.792;2023-04-12T06:32:55;6.66;;;3.58;;
54143;SDS011;40050;47.324;18.792;2023-04-12T06:34:55;7.52;;;3.38;;
54143;SDS011;40050;47.324;18.792;2023-04-12T06:36:56;4.92;;;3.38;;
54143;SDS011;40050;47.324;18.792;2023-04-12T06:38:57;5.41;;;3.09;;
54143;SDS011;40050;47.324;18.792;2023-04-12T06:40:58;5.32;;;3.29;;
54143;SDS011;40050;47.324;18.792;2023-04-12T06:42:59;4.85;;;3.09;;
54143;SDS011;40050;47.324;18.792;2023-04-12T06:45:00;5.82;;;3.09;;
54143;SDS011;40050;47.324;18.792;2023-04-12T06:47:01;5.15;;;3.19;;
54143;SDS011;40050;47.324;18.792;2023-04-12T06:49:02;5.45;;;3.09;;
54143;SDS011;40050;47.324;18.792;2023-04-12T06:51:03;5.26;;;2.99;;
54143;SDS011;40050;47.324;18.792;2023-04-12T06:53:04;5.56;;;2.89;;
54143;SDS011;40050;47.324;18.792;2023-04-12T06:55:07;5.07;;;2.79;;
54143;SDS011;40050;47.324;18.792;2023-04-12T06:57:08;4.98;;;2.99;;
54143;SDS011;40050;47.324;18.792;2023-04-12T06:59:09;5.85;;;3.39;;
54143;SDS011;40050;47.324;18.792;2023-04-12T07:01:10;5.36;;;3.29;;
54143;SDS011;40050;47.324;18.792;2023-04-12T07:03:11;5.95;;;3.19;;
54143;SDS011;40050;47.324;18.792;2023-04-12T07:05:12;3.81;;;2.69;;
54143;SDS011;40050;47.324;18.792;2023-04-12T07:07:13;6.84;;;3.29;;
54143;SDS011;40050;47.324;18.792;2023-04-12T07:09:13;5.87;;;3.09;;
54143;SDS011;40050;47.324;18.792;2023-04-12T07:11:14;5.08;;;2.99;;
54143;SDS011;40050;47.324;18.792;2023-04-12T07:13:15;5.97;;;3.19;;
54143;SDS011;40050;47.324;18.792;2023-04-12T07:15:16;5.86;;;2.79;;
54143;SDS011;40050;47.324;18.792;2023-04-12T07:17:17;7.15;;;3.19;;
54143;SDS011;40050;47.324;18.792;2023-04-12T07:19:18;5.69;;;3.29;;
54143;SDS011;40050;47.324;18.792;2023-04-12T07:21:19;6.58;;;3.19;;
54143;SDS011;40050;47.324;18.792;2023-04-12T07:23:20;6.00;;;2.90;;
54143;SDS011;40050;47.324;18.792;2023-04-12T07:25:21;4.62;;;2.70;;
54143;SDS011;40050;47.324;18.792;2023-04-12T07:27:25;6.69;;;3.69;;
54143;SDS011;40050;47.324;18.792;2023-04-12T07:29:26;7.47;;;3.39;;
54143;SDS011;40050;47.324;18.792;2023-04-12T07:31:27;7.58;;;3.50;;
54143;SDS011;40050;47.324;18.792;2023-04-12T07:33:28;8.67;;;3.20;;
54143;SDS011;40050;47.324;18.792;2023-04-12T07:35:29;6.50;;;3.40;;
54143;SDS011;40050;47.324;18.792;2023-04-12T07:37:30;5.72;;;2.80;;
54143;SDS011;40050;47.324;18.792;2023-04-12T07:39:31;6.02;;;2.90;;
54143;SDS011;40050;47.324;18.792;2023-04-12T07:41:32;5.53;;;3.00;;
54143;SDS011;40050;47.324;18.792;2023-04-12T07:43:32;6.81;;;3.50;;
54143;SDS011;40050;47.324;18.792;2023-04-12T07:45:36;5.33;;;3.20;;
54143;SDS011;40050;47.324;18.792;2023-04-12T07:47:34;6.90;;;3.00;;
54143;SDS011;40050;47.324;18.792;2023-04-12T07:49:35;6.91;;;2.80;;
54143;SDS011;40050;47.324;18.792;2023-04-12T07:51:36;5.04;;;2.60;;
54143;SDS011;40050;47.324;18.792;2023-04-12T07:53:57;4.85;;;3.00;;
54143;SDS011;40050;47.324;18.792;2023-04-12T07:55:58;4.65;;;2.60;;
54143;SDS011;40050;47.324;18.792;2023-04-12T07:57:59;5.05;;;2.80;;
54143;SDS011;40050;47.324;18.792;2023-04-12T08:00:00;4.85;;;2.50;;
54143;SDS011;40050;47.324;18.792;2023-04-12T08:02:01;7.53;;;2.80;;
54143;SDS011;40050;47.324;18.792;2023-04-12T08:04:02;5.35;;;2.50;;
54143;SDS011;40050;47.324;18.792;2023-04-12T08:06:03;4.26;;;2.40;;
54143;SDS011;40050;47.324;18.792;2023-04-12T08:08:04;4.76;;;2.90;;
54143;SDS011;40050;47.324;18.792;2023-04-12T08:10:05;6.15;;;3.00;;
54143;SDS011;40050;47.324;18.792;2023-04-12T08:12:06;5.46;;;2.80;;
54143;SDS011;40050;47.324;18.792;2023-04-12T08:14:07;4.86;;;2.60;;
54143;SDS011;40050;47.324;18.792;2023-04-12T08:16:08;4.47;;;2.50;;
54143;SDS011;40050;47.324;18.792;2023-04-12T08:18:09;4.57;;;2.30;;
54143;SDS011;40050;47.324;18.792;2023-04-12T08:20:10;4.27;;;2.60;;
54143;SDS011;40050;47.324;18.792;2023-04-12T08:22:10;6.76;;;2.70;;
54143;SDS011;40050;47.324;18.792;2023-04-12T08:24:11;4.07;;;2.50;;
54143;SDS011;40050;47.324;18.792;2023-04-12T08:26:12;4.28;;;2.10;;
54143;SDS011;40050;47.324;18.792;2023-04-12T08:28:13;3.38;;;2.20;;
54143;SDS011;40050;47.324;18.792;2023-04-12T08:30:14;3.28;;;2.20;;
54143;SDS011;40050;47.324;18.792;2023-04-12T08:32:16;5.07;;;2.70;;
54143;SDS011;40050;47.324;18.792;2023-04-12T08:34:17;5.08;;;2.50;;
54143;SDS011;40050;47.324;18.792;2023-04-12T08:36:18;3.88;;;2.10;;
54143;SDS011;40050;47.324;18.792;2023-04-12T08:38:19;3.48;;;2.20;;
54143;SDS011;40050;47.324;18.792;2023-04-12T08:40:20;4.18;;;2.30;;
54143;SDS011;40050;47.324;18.792;2023-04-12T08:42:21;5.28;;;2.40;;
54143;SDS011;40050;47.324;18.792;2023-04-12T08:44:32;4.28;;;2.10;;
54143;SDS011;40050;47.324;18.792;2023-04-12T08:46:24;3.98;;;2.00;;
54143;SDS011;40050;47.324;18.792;2023-04-12T08:48:26;3.78;;;1.90;;
54143;SDS011;40050;47.324;18.792;2023-04-12T08:50:26;3.39;;;1.80;;
54143;SDS011;40050;47.324;18.792;2023-04-12T08:52:30;5.18;;;1.80;;
54143;SDS011;40050;47.324;18.792;2023-04-12T08:54:31;2.89;;;1.90;;
54143;SDS011;40050;47.324;18.792;2023-04-12T08:56:32;4.29;;;2.20;;
54143;SDS011;40050;47.324;18.792;2023-04-12T08:58:33;3.99;;;2.10;;
54143;SDS011;40050;47.324;18.792;2023-04-12T09:00:37;3.98;;;1.90;;
54143;SDS011;40050;47.324;18.792;2023-04-12T09:02:38;3.59;;;1.60;;
54143;SDS011;40050;47.324;18.792;2023-04-12T09:04:50;4.79;;;1.80;;
54143;SDS011;40050;47.324;18.792;2023-04-12T09:06:39;4.99;;;1.90;;
54143;SDS011;40050;47.324;18.792;2023-04-12T09:08:50;4.19;;;1.90;;
54143;SDS011;40050;47.324;18.792;2023-04-12T09:10:54;3.69;;;1.80;;
54143;SDS011;40050;47.324;18.792;2023-04-12T09:12:55;2.49;;;1.70;;
54143;SDS011;40050;47.324;18.792;2023-04-12T09:15:09;5.59;;;1.90;;
54143;SDS011;40050;47.324;18.792;2023-04-12T09:17:20;3.39;;;1.70;;
54143;SDS011;40050;47.324;18.792;2023-04-12T09:19:31;4.69;;;1.90;;
54143;SDS011;40050;47.324;18.792;2023-04-12T09:21:19;4.59;;;1.50;;
54143;SDS011;40050;47.324;18.792;2023-04-12T09:23:21;4.39;;;1.90;;
54143;SDS011;40050;47.324;18.792;2023-04-12T09:25:34;3.19;;;1.60;;
54143;SDS011;40050;47.324;18.792;2023-04-12T09:27:44;4.39;;;1.80;;
54143;SDS011;40050;47.324;18.792;2023-04-12T09:29:36;6.39;;;2.10;;
54143;SDS011;40050;47.324;18.792;2023-04-12T09:31:53;4.99;;;1.80;;
54143;SDS011;40050;47.324;18.792;2023-04-12T09:33:46;2.99;;;1.70;;
54143;SDS011;40050;47.324;18.792;2023-04-12T09:35:47;4.29;;;2.00;;
54143;SDS011;40050;47.324;18.792;2023-04-12T09:37:55;3.49;;;2.00;;
54143;SDS011;40050;47.324;18.792;2023-04-12T09:40:09;7.19;;;1.80;;
54143;SDS011;40050;47.324;18.792;2023-04-12T09:42:02;3.49;;;1.90;;
54143;SDS011;40050;47.324;18.792;2023-04-12T09:44:03;4.59;;;1.80;;
54143;SDS011;40050;47.324;18.792;2023-04-12T09:46:14;3.39;;;1.60;;
54143;SDS011;40050;47.324;18.792;2023-04-12T09:48:07;4.69;;;2.20;;
54143;SDS011;40050;47.324;18.792;2023-04-12T09:50:25;4.39;;;1.90;;
54143;SDS011;40050;47.324;18.792;2023-04-12T09:52:21;3.49;;;1.80;;
54143;SDS011;40050;47.324;18.792;2023-04-12T09:54:22;3.39;;;1.70;;
54143;SDS011;40050;47.324;18.792;2023-04-12T09:56:23;2.99;;;1.80;;
54143;SDS011;40050;47.324;18.792;2023-04-12T09:58:25;4.09;;;1.70;;
54143;SDS011;40050;47.324;18.792;2023-04-12T10:00:30;6.29;;;2.40;;
54143;SDS011;40050;47.324;18.792;2023-04-12T10:02:32;3.39;;;2.20;;
54143;SDS011;40050;47.324;18.792;2023-04-12T10:04:35;3.59;;;1.70;;
54143;SDS011;40050;47.324;18.792;2023-04-12T10:06:35;3.99;;;1.80;;
54143;SDS011;40050;47.324;18.792;2023-04-12T10:08:36;3.59;;;1.80;;
54143;SDS011;40050;47.324;18.792;2023-04-12T10:10:38;4.29;;;1.90;;
54143;SDS011;40050;47.324;18.792;2023-04-12T10:12:39;2.30;;;1.50;;
54143;SDS011;40050;47.324;18.792;2023-04-12T10:14:40;4.09;;;1.70;;
54143;SDS011;40050;47.324;18.792;2023-04-12T10:16:41;2.89;;;1.70;;
54143;SDS011;40050;47.324;18.792;2023-04-12T10:18:43;3.39;;;1.60;;
54143;SDS011;40050;47.324;18.792;2023-04-12T10:20:45;4.29;;;1.80;;
54143;SDS011;40050;47.324;18.792;2023-04-12T10:22:48;3.99;;;2.30;;
54143;SDS011;40050;47.324;18.792;2023-04-12T10:24:48;2.90;;;1.70;;
54143;SDS011;40050;47.324;18.792;2023-04-12T10:26:50;3.70;;;1.90;;
54143;SDS011;40050;47.324;18.792;2023-04-12T10:30:55;6.49;;;1.60;;
54143;SDS011;40050;47.324;18.792;2023-04-12T10:34:59;3.20;;;2.00;;
54143;SDS011;40050;47.324;18.792;2023-04-12T10:37:56;3.40;;;1.80;;
54143;SDS011;40050;47.324;18.792;2023-04-12T10:39:39;2.40;;;1.70;;
54143;SDS011;40050;47.324;18.792;2023-04-12T10:42:13;5.99;;;2.00;;
54143;SDS011;40050;47.324;18.792;2023-04-12T10:46:06;4.99;;;2.20;;
54143;SDS011;40050;47.324;18.792;2023-04-12T10:48:37;3.20;;;2.00;;
54143;SDS011;40050;47.324;18.792;2023-04-12T10:51:10;4.00;;;2.10;;
54143;SDS011;40050;47.324;18.792;2023-04-12T10:55:26;4.00;;;2.30;;
54143;SDS011;40050;47.324;18.792;2023-04-12T10:59:51;5.19;;;1.60;;
54143;SDS011;40050;47.324;18.792;2023-04-12T11:02:07;6.19;;;1.90;;
54143;SDS011;40050;47.324;18.792;2023-04-12T11:06:03;4.10;;;2.10;;
54143;SDS011;40050;47.324;18.792;2023-04-12T11:07:45;3.90;;;1.50;;
54143;SDS011;40050;47.324;18.792;2023-04-12T11:09:56;3.60;;;1.80;;
54143;SDS011;40050;47.324;18.792;2023-04-12T11:13:58;4.70;;;1.80;;
54143;SDS011;40050;47.324;18.792;2023-04-12T11:16:04;4.49;;;1.90;;
54143;SDS011;40050;47.324;18.792;2023-04-12T11:18:02;3.20;;;1.70;;
54143;SDS011;40050;47.324;18.792;2023-04-12T11:20:04;3.80;;;1.80;;
54143;SDS011;40050;47.324;18.792;2023-04-12T11:22:06;4.59;;;1.80;;
54143;SDS011;40050;47.324;18.792;2023-04-12T11:24:07;3.60;;;1.90;;
54143;SDS011;40050;47.324;18.792;2023-04-12T11:26:08;3.99;;;2.00;;
54143;SDS011;40050;47.324;18.792;2023-04-12T11:28:09;7.79;;;2.20;;
54143;SDS011;40050;47.324;18.792;2023-04-12T11:30:10;3.10;;;1.80;;
54143;SDS011;40050;47.324;18.792;2023-04-12T11:32:14;3.60;;;1.80;;
54143;SDS011;40050;47.324;18.792;2023-04-12T11:34:12;4.99;;;1.70;;
54143;SDS011;40050;47.324;18.792;2023-04-12T11:36:13;4.99;;;1.70;;
54143;SDS011;40050;47.324;18.792;2023-04-12T11:38:14;2.70;;;1.60;;
54143;SDS011;40050;47.324;18.792;2023-04-12T11:40:16;6.19;;;1.80;;
54143;SDS011;40050;47.324;18.792;2023-04-12T11:42:18;4.40;;;2.10;;
54143;SDS011;40050;47.324;18.792;2023-04-12T11:44:18;3.50;;;2.00;;
54143;SDS011;40050;47.324;18.792;2023-04-12T11:46:25;3.10;;;1.90;;
54143;SDS011;40050;47.324;18.792;2023-04-12T11:48:26;6.29;;;1.90;;
54143;SDS011;40050;47.324;18.792;2023-04-12T11:50:28;4.00;;;2.20;;
54143;SDS011;40050;47.324;18.792;2023-04-12T11:52:32;3.50;;;1.90;;
54143;SDS011;40050;47.324;18.792;2023-04-12T11:54:33;3.70;;;1.80;;
54143;SDS011;40050;47.324;18.792;2023-04-12T11:56:34;5.69;;;2.20;;
54143;SDS011;40050;47.324;18.792;2023-04-12T11:58:35;3.70;;;2.10;;
54143;SDS011;40050;47.324;18.792;2023-04-12T12:00:36;4.00;;;2.20;;
54143;SDS011;40050;47.324;18.792;2023-04-12T12:02:38;3.90;;;2.10;;
54143;SDS011;40050;47.324;18.792;2023-04-12T12:04:40;3.20;;;1.80;;
54143;SDS011;40050;47.324;18.792;2023-04-12T12:06:41;3.60;;;2.00;;
54143;SDS011;40050;47.324;18.792;2023-04-12T12:08:42;2.00;;;1.60;;
54143;SDS011;40050;47.324;18.792;2023-04-12T12:10:43;3.00;;;1.90;;
54143;SDS011;40050;47.324;18.792;2023-04-12T12:12:44;3.10;;;1.50;;
54143;SDS011;40050;47.324;18.792;2023-04-12T12:14:48;4.10;;;1.70;;
54143;SDS011;40050;47.324;18.792;2023-04-12T12:16:54;3.00;;;1.80;;
54143;SDS011;40050;47.324;18.792;2023-04-12T12:18:55;3.60;;;1.70;;
54143;SDS011;40050;47.324;18.792;2023-04-12T12:20:56;3.40;;;1.90;;
54143;SDS011;40050;47.324;18.792;2023-04-12T12:22:57;6.40;;;2.10;;